Time;durP1;ratioP1;P1;durP2;ratioP2;P2;SDS_P1;SDS_P2;PMS_P1;PMS_P2;Temp;Humidity;BMP_temperature;BMP_pressure;BME280_temperature;BME280_humidity;BME280_pressure;Samples;Min_cycle;Max_cycle;Signal;HPM_P1;HPM_P2
2022/02/04 00:24:35;;;;;;;;;;;22.40;30.40;;;;;;475887;247;1521;-60
2022/02/04 00:26:42;;;;;;;;;;;22.40;30.40;;;;;;482208;246;2226;-59
2022/02/04 00:28:47;;;;;;;;;;;22.30;30.50;;;;;;481944;247;1403;-60
2022/02/04 00:30:46;;;;;;;;;;;22.30;30.50;;;;;;481793;247;1421;-59
2022/02/04 00:32:44;;;;;;;;;;;22.30;30.60;;;;;;481890;247;1539;-59
2022/02/04 00:34:49;;;;;;;;;;;22.20;30.60;;;;;;482085;247;1877;-60
2022/02/04 00:36:50;;;;;;;;;;;22.20;30.50;;;;;;481815;247;1955;-59
2022/02/04 00:38:50;;;;;;;;;;;22.20;30.60;;;;;;481993;247;1951;-61
2022/02/04 00:40:51;;;;;;;;;;;22.20;30.70;;;;;;482091;247;1440;-59
2022/02/04 00:42:51;;;;;;;;;;;22.10;30.80;;;;;;481956;247;1537;-60
2022/02/04 00:44:58;;;;;;;;;;;22.10;30.60;;;;;;482176;247;1551;-59
2022/02/04 00:46:59;;;;;;;;;;;22.00;30.90;;;;;;481636;247;2192;-60
2022/02/04 00:49:02;;;;;;;;;;;21.80;31.10;;;;;;481990;247;1342;-59
2022/02/04 00:51:04;;;;;;;;;;;21.70;31.20;;;;;;481898;247;1239;-59
2022/02/04 00:53:10;;;;;;;;;;;21.60;31.30;;;;;;481944;243;2052;-59
2022/02/04 00:55:19;;;;;;;;;;;21.50;31.60;;;;;;481959;247;2245;-60
2022/02/04 00:57:18;;;;;;;;;;;21.40;31.70;;;;;;481617;247;1552;-60
2022/02/04 01:13:03;;;;;;;;;;;21.20;31.80;;;;;;482261;247;1218;-60
2022/02/04 01:13:28;;;;;;;;;;;21.10;32.00;;;;;;466236;247;1678;-60
2022/02/04 01:27:01;;;;;;;;;;;21.20;31.70;;;;;;482217;247;2158;-60
2022/02/04 01:29:02;;;;;;;;;;;21.20;31.60;;;;;;482257;247;1434;-59
2022/02/04 01:31:03;;;;;;;;;;;21.20;31.60;;;;;;482169;238;1176;-59
2022/02/04 01:33:05;;;;;;;;;;;21.20;31.50;;;;;;482192;246;1158;-59
2022/02/04 01:35:06;;;;;;;;;;;21.20;31.40;;;;;;482230;247;1403;-59
2022/02/04 01:37:07;;;;;;;;;;;21.30;31.30;;;;;;482129;246;1219;-60
2022/02/04 01:39:08;;;;;;;;;;;21.30;31.40;;;;;;482276;246;1023;-59
2022/02/04 01:41:10;;;;;;;;;;;21.20;31.50;;;;;;482219;244;1355;-59
2022/02/04 01:43:11;;;;;;;;;;;21.30;31.40;;;;;;482250;246;1132;-59
2022/02/04 01:45:12;;;;;;;;;;;21.30;31.40;;;;;;482251;246;1138;-59
2022/02/04 01:47:14;;;;;;;;;;;21.30;31.40;;;;;;482182;246;2128;-59
2022/02/04 01:49:15;;;;;;;;;;;21.30;31.30;;;;;;482349;246;1191;-59
2022/02/04 01:51:16;;;;;;;;;;;21.30;31.40;;;;;;482214;246;1301;-60
2022/02/04 01:53:18;;;;;;;;;;;21.30;31.30;;;;;;482291;246;1192;-59
2022/02/04 01:55:19;;;;;;;;;;;21.30;31.40;;;;;;482341;246;959;-59
2022/02/04 01:57:20;;;;;;;;;;;21.20;31.50;;;;;;482235;246;1204;-59
2022/02/04 01:59:22;;;;;;;;;;;21.20;31.50;;;;;;482297;246;955;-59
2022/02/04 02:01:23;;;;;;;;;;;21.20;31.60;;;;;;482229;246;1288;-60
2022/02/04 02:03:24;;;;;;;;;;;21.10;31.80;;;;;;482383;246;1169;-60
2022/02/04 02:05:26;;;;;;;;;;;21.10;31.70;;;;;;482289;246;1040;-60
2022/02/04 02:07:29;;;;;;;;;;;21.00;32.00;;;;;;482227;246;2200;-59
2022/02/04 02:09:35;;;;;;;;;;;21.10;32.00;;;;;;482172;247;1891;-60
2022/02/04 02:11:30;;;;;;;;;;;21.00;32.00;;;;;;481824;247;1405;-60
2022/02/04 02:13:38;;;;;;;;;;;21.00;32.10;;;;;;482304;246;1191;-59
2022/02/04 02:15:40;;;;;;;;;;;20.90;32.30;;;;;;481817;247;1947;-59
2022/02/04 02:34:29;;;;;;;;;;;21.10;32.20;;;;;;482258;247;1285;-59
2022/02/04 02:36:37;;;;;;;;;;;21.10;32.10;;;;;;480830;247;1461;-60
2022/02/04 02:46:19;;;;;;;;;;;21.30;31.70;;;;;;474180;242;1180;-60
2022/02/04 02:48:21;;;;;;;;;;;21.40;31.40;;;;;;489683;243;2118;-59
2022/02/04 02:50:44;;;;;;;;;;;21.40;31.30;;;;;;482066;247;1518;-60
2022/02/04 02:53:04;;;;;;;;;;;21.50;31.10;;;;;;481974;246;1357;-60
2022/02/04 02:57:25;;;;;;;;;;;21.70;30.90;;;;;;482672;246;1190;-60
2022/02/04 02:59:15;;;;;;;;;;;21.70;30.60;;;;;;481803;247;1511;-59
2022/02/04 03:01:13;;;;;;;;;;;21.80;30.50;;;;;;482358;247;1411;-60
2022/02/04 03:03:16;;;;;;;;;;;21.80;30.60;;;;;;482622;246;1129;-60
2022/02/04 03:05:16;;;;;;;;;;;21.80;30.50;;;;;;482589;246;1850;-59
2022/02/04 03:07:17;;;;;;;;;;;21.80;30.40;;;;;;482568;246;2181;-59
2022/02/04 03:09:18;;;;;;;;;;;21.80;30.40;;;;;;482653;246;1223;-59
2022/02/04 03:11:20;;;;;;;;;;;21.80;30.40;;;;;;482507;246;1172;-60
2022/02/04 03:13:21;;;;;;;;;;;21.90;30.30;;;;;;482564;246;1173;-60
2022/02/04 03:15:22;;;;;;;;;;;21.90;30.30;;;;;;482646;246;1262;-60
2022/02/04 03:17:23;;;;;;;;;;;21.90;30.20;;;;;;482442;246;1187;-59
2022/02/04 03:19:26;;;;;;;;;;;21.80;30.30;;;;;;482602;246;1345;-59
2022/02/04 03:21:30;;;;;;;;;;;21.80;30.30;;;;;;482498;247;1522;-59
2022/02/04 03:23:30;;;;;;;;;;;21.90;30.10;;;;;;482358;246;1314;-59
2022/02/04 03:25:36;;;;;;;;;;;21.80;30.20;;;;;;482477;246;1448;-60
2022/02/04 03:27:37;;;;;;;;;;;21.80;30.10;;;;;;482148;247;2134;-60
2022/02/04 03:29:45;;;;;;;;;;;21.90;30.10;;;;;;482395;244;1355;-60
2022/02/04 03:31:40;;;;;;;;;;;21.80;30.10;;;;;;481911;247;1674;-59
2022/02/04 03:33:37;;;;;;;;;;;21.80;30.10;;;;;;482406;247;1581;-59
2022/02/04 03:35:38;;;;;;;;;;;21.90;30.00;;;;;;482668;243;1518;-60
2022/02/04 03:37:39;;;;;;;;;;;21.90;30.10;;;;;;482637;246;1177;-59
2022/02/04 03:39:41;;;;;;;;;;;21.90;30.10;;;;;;482633;246;1208;-60
2022/02/04 03:41:42;;;;;;;;;;;21.90;30.10;;;;;;482574;246;1191;-59
2022/02/04 03:43:43;;;;;;;;;;;21.90;30.00;;;;;;482716;246;1133;-60
2022/02/04 03:45:45;;;;;;;;;;;21.90;30.00;;;;;;482642;246;1208;-59
2022/02/04 03:47:46;;;;;;;;;;;21.90;30.00;;;;;;482578;246;2196;-59
2022/02/04 03:49:47;;;;;;;;;;;21.90;30.00;;;;;;482659;246;1189;-59
2022/02/04 03:51:49;;;;;;;;;;;21.90;30.00;;;;;;482647;246;1223;-60
2022/02/04 03:53:50;;;;;;;;;;;22.00;30.00;;;;;;482620;246;1206;-60
2022/02/04 03:55:51;;;;;;;;;;;21.90;30.00;;;;;;482637;246;1200;-60
2022/02/04 03:57:52;;;;;;;;;;;21.90;30.00;;;;;;482600;246;1109;-59
2022/02/04 03:59:54;;;;;;;;;;;21.90;30.00;;;;;;482683;246;1093;-59
2022/02/04 04:01:55;;;;;;;;;;;21.90;30.00;;;;;;482590;246;1279;-60
2022/02/04 04:03:56;;;;;;;;;;;21.80;30.00;;;;;;482666;246;994;-60
2022/02/04 04:05:58;;;;;;;;;;;21.80;30.00;;;;;;482703;246;1181;-59
2022/02/04 04:07:59;;;;;;;;;;;21.90;30.00;;;;;;482717;246;2212;-59
2022/02/04 04:10:06;;;;;;;;;;;21.90;30.00;;;;;;482700;246;955;-59
2022/02/04 04:12:02;;;;;;;;;;;21.90;30.00;;;;;;482316;247;2296;-59
2022/02/04 04:14:04;;;;;;;;;;;21.90;29.90;;;;;;482770;246;1026;-59
2022/02/04 04:16:04;;;;;;;;;;;21.90;30.00;;;;;;482567;246;1461;-59
2022/02/04 04:18:09;;;;;;;;;;;21.90;30.00;;;;;;482656;246;1125;-60
2022/02/04 04:20:07;;;;;;;;;;;21.80;30.00;;;;;;482552;246;2024;-60
2022/02/04 04:22:09;;;;;;;;;;;21.80;30.00;;;;;;482665;246;1549;-59
2022/02/04 04:24:10;;;;;;;;;;;21.90;30.00;;;;;;482646;246;1012;-60
2022/02/04 04:26:11;;;;;;;;;;;21.90;29.90;;;;;;482600;246;1217;-60
2022/02/04 04:28:13;;;;;;;;;;;21.90;30.00;;;;;;482599;246;2133;-60
2022/02/04 04:30:14;;;;;;;;;;;21.90;29.90;;;;;;482664;246;958;-59
2022/02/04 04:32:15;;;;;;;;;;;21.90;29.90;;;;;;482701;246;1124;-60
2022/02/04 04:34:17;;;;;;;;;;;21.90;29.90;;;;;;482705;246;970;-60
2022/02/04 04:36:19;;;;;;;;;;;21.90;29.90;;;;;;482598;243;1290;-60
2022/02/04 04:38:29;;;;;;;;;;;21.90;29.90;;;;;;482528;244;1447;-59
2022/02/04 04:40:36;;;;;;;;;;;21.70;30.00;;;;;;482230;247;1817;-59
2022/02/04 04:42:48;;;;;;;;;;;21.80;30.00;;;;;;482115;246;1503;-60
2022/02/04 04:45:03;;;;;;;;;;;21.80;29.90;;;;;;481886;247;1417;-60
2022/02/04 05:25:54;;;;;;;;;;;21.80;29.90;;;;;;481750;247;2032;-60
2022/02/04 05:29:15;;;;;;;;;;;21.20;30.40;;;;;;482473;247;2192;-59
2022/02/04 05:31:16;;;;;;;;;;;21.10;30.60;;;;;;482399;246;2019;-59
2022/02/04 05:33:17;;;;;;;;;;;21.20;30.50;;;;;;482543;246;1045;-60
2022/02/04 05:35:19;;;;;;;;;;;21.10;30.50;;;;;;482427;246;1283;-60
2022/02/04 05:37:22;;;;;;;;;;;21.10;30.50;;;;;;482383;246;1571;-59
2022/02/04 05:39:26;;;;;;;;;;;21.10;30.60;;;;;;482282;247;2521;-59
2022/02/04 05:41:27;;;;;;;;;;;21.10;30.60;;;;;;482042;247;2065;-59
2022/02/04 05:43:27;;;;;;;;;;;21.00;30.60;;;;;;482097;247;2169;-60
2022/02/04 05:45:28;;;;;;;;;;;21.00;30.60;;;;;;482296;246;1927;-59
2022/02/04 05:47:27;;;;;;;;;;;21.10;30.60;;;;;;482195;247;1837;-59
2022/02/04 05:49:30;;;;;;;;;;;21.10;30.70;;;;;;482488;246;2338;-59
2022/02/04 05:51:38;;;;;;;;;;;21.10;30.60;;;;;;482379;246;2404;-60
2022/02/04 05:53:38;;;;;;;;;;;21.10;30.50;;;;;;482126;247;1963;-59
2022/02/04 05:55:51;;;;;;;;;;;21.10;30.70;;;;;;482159;247;1345;-60
2022/02/04 05:57:56;;;;;;;;;;;21.10;30.70;;;;;;481885;246;1798;-60
2022/02/04 06:00:11;;;;;;;;;;;21.10;30.80;;;;;;481754;247;2345;-60
2022/02/04 06:02:00;;;;;;;;;;;21.00;30.70;;;;;;481006;247;2034;-60
2022/02/04 06:04:09;;;;;;;;;;;21.00;30.90;;;;;;482040;247;2378;-59
2022/02/04 06:06:28;;;;;;;;;;;21.00;30.90;;;;;;481720;247;1859;-59
2022/02/04 06:08:37;;;;;;;;;;;21.00;30.90;;;;;;481489;247;2192;-60
2022/02/04 06:10:52;;;;;;;;;;;21.00;30.80;;;;;;481518;247;1887;-59
2022/02/04 06:13:16;;;;;;;;;;;21.00;30.80;;;;;;480981;247;1950;-60
2022/02/04 06:15:23;;;;;;;;;;;21.00;30.90;;;;;;481733;247;2357;-60
2022/02/04 06:24:09;;;;;;;;;;;21.00;31.10;;;;;;481844;247;1167;-60
2022/02/04 06:26:10;;;;;;;;;;;21.00;31.00;;;;;;481917;246;1295;-59
2022/02/04 06:28:12;;;;;;;;;;;20.90;31.10;;;;;;481908;246;2181;-60
2022/02/04 06:30:15;;;;;;;;;;;21.00;31.00;;;;;;481880;246;1085;-60
2022/02/04 06:32:17;;;;;;;;;;;20.90;31.10;;;;;;481916;246;1185;-60
2022/02/04 06:34:18;;;;;;;;;;;20.90;31.10;;;;;;481901;247;1231;-59
2022/02/04 06:36:19;;;;;;;;;;;21.00;31.10;;;;;;481811;246;2744;-60
2022/02/04 06:38:21;;;;;;;;;;;20.90;31.20;;;;;;481835;246;1220;-60
2022/02/04 06:40:22;;;;;;;;;;;21.00;31.00;;;;;;481782;246;1034;-60
2022/02/04 06:42:23;;;;;;;;;;;21.00;31.00;;;;;;481720;246;1132;-60
2022/02/04 06:44:24;;;;;;;;;;;21.10;31.00;;;;;;481741;246;1142;-60
2022/02/04 06:46:26;;;;;;;;;;;21.00;31.10;;;;;;481734;246;1328;-60
2022/02/04 06:48:27;;;;;;;;;;;21.10;30.90;;;;;;481764;246;2196;-59
2022/02/04 06:50:28;;;;;;;;;;;21.20;30.90;;;;;;481846;246;1160;-60
2022/02/04 06:52:30;;;;;;;;;;;21.20;30.80;;;;;;481859;246;1165;-59
2022/02/04 06:54:31;;;;;;;;;;;21.20;30.80;;;;;;481919;246;1112;-60
2022/02/04 06:56:35;;;;;;;;;;;21.30;30.60;;;;;;481847;246;1167;-60
2022/02/04 06:58:34;;;;;;;;;;;21.40;30.70;;;;;;481760;247;2348;-60
2022/02/04 07:00:35;;;;;;;;;;;21.30;30.70;;;;;;481923;246;1040;-60
2022/02/04 07:02:37;;;;;;;;;;;21.40;30.60;;;;;;481796;246;1155;-60
2022/02/04 07:04:39;;;;;;;;;;;21.40;30.70;;;;;;481905;246;1053;-60
2022/02/04 07:06:43;;;;;;;;;;;21.50;30.60;;;;;;481626;247;2224;-60
2022/02/04 07:08:47;;;;;;;;;;;21.50;30.60;;;;;;481499;247;2180;-60
2022/02/04 07:11:02;;;;;;;;;;;21.50;30.60;;;;;;481349;247;2165;-59
2022/02/04 07:13:01;;;;;;;;;;;21.50;30.60;;;;;;480919;247;1499;-60
2022/02/04 07:17:28;;;;;;;;;;;21.50;30.60;;;;;;480168;243;1235;-60
2022/02/04 07:21:43;;;;;;;;;;;21.50;30.70;;;;;;481568;247;1386;-60
2022/02/04 07:23:44;;;;;;;;;;;21.50;30.70;;;;;;481611;246;1026;-60
2022/02/04 07:25:46;;;;;;;;;;;21.50;30.60;;;;;;481632;246;1084;-61
2022/02/04 07:27:47;;;;;;;;;;;21.60;30.70;;;;;;481666;246;1251;-60
2022/02/04 07:29:51;;;;;;;;;;;21.60;30.70;;;;;;481604;246;2204;-60
2022/02/04 07:31:51;;;;;;;;;;;21.60;30.50;;;;;;481522;247;1975;-60
2022/02/04 07:34:05;;;;;;;;;;;21.60;30.60;;;;;;481752;246;1351;-60
2022/02/04 07:42:50;;;;;;;;;;;21.50;30.80;;;;;;481687;247;1221;-59
2022/02/04 07:44:52;;;;;;;;;;;21.50;30.90;;;;;;481673;246;1090;-60
2022/02/04 07:46:53;;;;;;;;;;;21.40;31.00;;;;;;481355;246;1297;-60
2022/02/04 07:48:54;;;;;;;;;;;21.50;30.90;;;;;;481542;246;2176;-59
2022/02/04 07:50:56;;;;;;;;;;;21.50;31.00;;;;;;481513;246;1349;-60
2022/02/04 07:52:57;;;;;;;;;;;21.60;31.00;;;;;;481418;246;1251;-59
2022/02/04 07:54:58;;;;;;;;;;;21.60;30.90;;;;;;481448;246;1032;-59
2022/02/04 07:57:00;;;;;;;;;;;21.60;30.90;;;;;;481353;246;1253;-59
2022/02/04 07:59:07;;;;;;;;;;;21.60;31.00;;;;;;481530;246;1159;-60
2022/02/04 08:01:03;;;;;;;;;;;21.60;30.90;;;;;;481264;247;2298;-60
2022/02/04 08:03:14;;;;;;;;;;;21.60;30.90;;;;;;481635;246;1316;-60
2022/02/04 08:05:06;;;;;;;;;;;21.70;30.90;;;;;;480849;247;2237;-60
2022/02/04 08:07:10;;;;;;;;;;;21.70;30.90;;;;;;481271;246;2143;-60
2022/02/04 08:09:17;;;;;;;;;;;21.70;31.00;;;;;;481299;247;2187;-60
2022/02/04 08:11:23;;;;;;;;;;;21.70;30.90;;;;;;481046;247;1444;-60
2022/02/04 08:13:34;;;;;;;;;;;21.70;31.00;;;;;;481044;247;1327;-60
2022/02/04 08:15:41;;;;;;;;;;;21.70;30.90;;;;;;480799;247;1608;-60
2022/02/04 08:20:19;;;;;;;;;;;21.80;30.80;;;;;;481638;246;1066;-60
2022/02/04 08:22:32;;;;;;;;;;;21.80;30.90;;;;;;480907;247;2099;-60
2022/02/04 08:24:43;;;;;;;;;;;21.90;30.80;;;;;;480978;247;1560;-59
2022/02/04 08:29:16;;;;;;;;;;;22.00;30.70;;;;;;470186;247;2173;-59
2022/02/04 08:31:29;;;;;;;;;;;22.00;30.70;;;;;;480948;247;2265;-60
2022/02/04 08:33:48;;;;;;;;;;;22.00;30.90;;;;;;480877;247;1827;-59
2022/02/04 08:38:19;;;;;;;;;;;22.00;30.90;;;;;;466565;247;1335;-60
2022/02/04 08:47:45;;;;;;;;;;;22.00;30.90;;;;;;481344;247;1355;-59
2022/02/04 08:49:38;;;;;;;;;;;22.00;31.00;;;;;;480139;247;2185;-59
2022/02/04 08:51:42;;;;;;;;;;;22.00;31.10;;;;;;480710;247;2157;-60
2022/02/04 08:56:07;;;;;;;;;;;21.90;31.20;;;;;;481500;246;1177;-60
2022/02/04 08:58:23;;;;;;;;;;;21.90;31.10;;;;;;481552;246;1211;-60
2022/02/04 09:00:23;;;;;;;;;;;21.90;31.20;;;;;;480910;247;2435;-60
2022/02/04 09:02:31;;;;;;;;;;;21.80;31.30;;;;;;481099;247;1510;-59
2022/02/04 09:04:29;;;;;;;;;;;21.80;31.30;;;;;;480725;247;2024;-60
2022/02/04 09:06:23;;;;;;;;;;;21.80;31.30;;;;;;480963;247;1962;-59
2022/02/04 09:08:27;;;;;;;;;;;21.80;31.30;;;;;;481330;247;2207;-59
2022/02/04 09:10:26;;;;;;;;;;;21.80;31.40;;;;;;481320;247;2121;-60
2022/02/04 09:17:16;;;;;;;;;;;21.70;31.40;;;;;;481403;247;1125;-60
2022/02/04 09:19:13;;;;;;;;;;;21.80;31.40;;;;;;480791;247;1872;-59
2022/02/04 09:21:35;;;;;;;;;;;21.90;31.30;;;;;;481007;247;1566;-60
2022/02/04 09:23:16;;;;;;;;;;;21.90;31.30;;;;;;479988;247;1903;-60
2022/02/04 09:25:18;;;;;;;;;;;21.90;31.20;;;;;;481324;246;1088;-59
2022/02/04 09:27:19;;;;;;;;;;;21.90;31.20;;;;;;481503;246;1259;-59
2022/02/04 09:29:20;;;;;;;;;;;21.90;31.30;;;;;;481512;246;2197;-60
2022/02/04 09:31:22;;;;;;;;;;;22.00;31.20;;;;;;481458;246;1237;-60
2022/02/04 09:33:23;;;;;;;;;;;21.90;31.20;;;;;;481417;246;1233;-60
2022/02/04 09:35:24;;;;;;;;;;;22.00;31.10;;;;;;481481;246;1066;-60
2022/02/04 09:37:26;;;;;;;;;;;22.00;31.20;;;;;;481335;246;1191;-59
2022/02/04 09:39:27;;;;;;;;;;;22.00;31.10;;;;;;481360;246;2279;-60
2022/02/04 09:41:28;;;;;;;;;;;22.10;31.10;;;;;;481403;246;1194;-60
2022/02/04 09:43:30;;;;;;;;;;;22.10;31.00;;;;;;481491;246;1188;-59
2022/02/04 09:45:33;;;;;;;;;;;22.10;30.90;;;;;;481569;246;1175;-60
2022/02/04 09:47:35;;;;;;;;;;;22.20;30.80;;;;;;481331;247;1380;-60
2022/02/04 09:49:40;;;;;;;;;;;22.10;30.80;;;;;;481247;246;2185;-60
2022/02/04 09:51:55;;;;;;;;;;;22.30;30.70;;;;;;481136;247;2109;-60
2022/02/04 10:06:44;;;;;;;;;;;22.40;30.50;;;;;;481603;247;1003;-60
2022/02/04 10:08:05;;;;;;;;;;;22.40;30.50;;;;;;480187;247;1164;-60
2022/02/04 10:12:48;;;;;;;;;;;22.30;30.60;;;;;;481369;246;1195;-59
2022/02/04 10:14:51;;;;;;;;;;;22.30;30.60;;;;;;480471;247;1398;-60
2022/02/04 10:17:05;;;;;;;;;;;22.40;30.50;;;;;;480558;247;2132;-60
2022/02/04 10:18:51;;;;;;;;;;;22.40;30.40;;;;;;480390;247;2011;-60
2022/02/04 10:20:49;;;;;;;;;;;22.40;30.50;;;;;;481385;247;2288;-60
2022/02/04 10:22:51;;;;;;;;;;;22.50;30.30;;;;;;481463;246;1278;-60
2022/02/04 10:24:52;;;;;;;;;;;22.50;30.20;;;;;;481453;246;1237;-60
2022/02/04 10:26:53;;;;;;;;;;;22.50;30.30;;;;;;481590;246;1228;-60
2022/02/04 10:28:55;;;;;;;;;;;22.50;30.20;;;;;;481510;246;1079;-60
2022/02/04 10:30:56;;;;;;;;;;;22.50;30.30;;;;;;481539;246;2126;-59
2022/02/04 10:32:58;;;;;;;;;;;22.60;30.00;;;;;;481727;246;1043;-60
2022/02/04 10:34:59;;;;;;;;;;;22.60;30.10;;;;;;481562;246;2134;-60
2022/02/04 10:37:02;;;;;;;;;;;22.60;30.00;;;;;;481479;247;1252;-60
2022/02/04 10:39:01;;;;;;;;;;;22.60;30.00;;;;;;481328;247;2279;-60
2022/02/04 10:41:08;;;;;;;;;;;22.70;30.00;;;;;;481303;246;1212;-60
2022/02/04 10:43:22;;;;;;;;;;;22.70;30.00;;;;;;480649;247;2345;-60
2022/02/04 10:45:35;;;;;;;;;;;22.70;29.90;;;;;;480903;247;1509;-60
2022/02/04 10:47:30;;;;;;;;;;;22.90;29.70;;;;;;480868;247;2515;-60
2022/02/04 10:49:42;;;;;;;;;;;22.80;29.70;;;;;;481367;246;2197;-60
2022/02/04 10:56:50;;;;;;;;;;;23.20;29.40;;;;;;481236;247;1672;-59
2022/02/04 10:59:00;;;;;;;;;;;23.30;29.30;;;;;;480996;247;1285;-60
2022/02/04 11:01:14;;;;;;;;;;;23.30;29.30;;;;;;480665;247;2106;-60
2022/02/04 11:03:13;;;;;;;;;;;23.30;29.30;;;;;;481059;247;2049;-60
2022/02/04 11:05:16;;;;;;;;;;;23.40;29.10;;;;;;481205;247;1843;-60
2022/02/04 11:07:35;;;;;;;;;;;23.50;29.00;;;;;;481480;246;1711;-60
2022/02/04 11:09:31;;;;;;;;;;;23.60;29.00;;;;;;480570;247;2274;-60
2022/02/04 11:11:57;;;;;;;;;;;23.60;28.90;;;;;;480941;247;2309;-60
2022/02/04 11:35:11;;;;;;;;;;;24.60;27.90;;;;;;470161;247;1141;-60
2022/02/04 11:51:20;;;;;;;;;;;24.80;27.60;;;;;;481506;246;2177;-60
2022/02/04 11:53:26;;;;;;;;;;;24.80;27.60;;;;;;481427;247;1251;-59
2022/02/04 11:55:22;;;;;;;;;;;24.70;27.70;;;;;;481267;247;2206;-59
2022/02/04 11:57:23;;;;;;;;;;;24.60;27.80;;;;;;481610;246;1160;-59
2022/02/04 11:59:25;;;;;;;;;;;24.60;27.80;;;;;;481657;246;1076;-59
2022/02/04 12:01:26;;;;;;;;;;;24.40;27.80;;;;;;481481;246;1149;-59
2022/02/04 12:03:31;;;;;;;;;;;24.50;27.80;;;;;;481511;246;1147;-59
2022/02/04 12:05:31;;;;;;;;;;;24.40;27.80;;;;;;481530;246;2219;-59
2022/02/04 12:07:32;;;;;;;;;;;24.50;27.80;;;;;;481660;246;1167;-59
2022/02/04 12:09:33;;;;;;;;;;;24.40;27.80;;;;;;481647;246;1173;-59
2022/02/04 12:11:34;;;;;;;;;;;24.40;27.90;;;;;;481533;246;2205;-59
2022/02/04 12:13:36;;;;;;;;;;;24.40;27.90;;;;;;481499;246;1047;-58
2022/02/04 12:15:37;;;;;;;;;;;24.40;27.90;;;;;;481528;246;1068;-59
2022/02/04 12:17:38;;;;;;;;;;;24.40;27.90;;;;;;481497;246;1337;-59
2022/02/04 12:19:40;;;;;;;;;;;24.40;27.80;;;;;;481599;246;1066;-60
2022/02/04 12:21:41;;;;;;;;;;;24.30;27.90;;;;;;481558;246;1309;-60
2022/02/04 12:23:44;;;;;;;;;;;24.30;27.90;;;;;;481651;246;1157;-59
2022/02/04 12:25:44;;;;;;;;;;;24.30;27.90;;;;;;481491;247;2015;-59
2022/02/04 12:27:48;;;;;;;;;;;24.40;27.80;;;;;;481587;246;1169;-59
2022/02/04 12:29:46;;;;;;;;;;;24.40;27.90;;;;;;481462;247;2019;-59
2022/02/04 12:31:48;;;;;;;;;;;24.30;27.90;;;;;;481445;246;2137;-59
2022/02/04 12:33:49;;;;;;;;;;;24.30;27.90;;;;;;481516;246;1030;-59
2022/02/04 12:35:50;;;;;;;;;;;24.20;27.90;;;;;;481531;246;1440;-59
2022/02/04 12:37:52;;;;;;;;;;;24.20;28.00;;;;;;481568;246;1105;-59
2022/02/04 12:39:53;;;;;;;;;;;24.30;28.00;;;;;;481481;246;1234;-59
2022/02/04 12:41:54;;;;;;;;;;;24.20;28.10;;;;;;481414;246;1225;-59
2022/02/04 12:43:56;;;;;;;;;;;24.20;28.00;;;;;;481442;246;1207;-59
2022/02/04 12:45:57;;;;;;;;;;;24.30;28.00;;;;;;481446;246;1140;-59
2022/02/04 12:47:58;;;;;;;;;;;24.20;28.00;;;;;;481461;246;1084;-58
2022/02/04 12:50:02;;;;;;;;;;;24.30;27.90;;;;;;481504;246;2113;-59
2022/02/04 12:52:04;;;;;;;;;;;24.10;28.10;;;;;;481218;247;2613;-60
2022/02/04 12:54:02;;;;;;;;;;;24.20;28.10;;;;;;481219;247;2147;-59
2022/02/04 12:56:20;;;;;;;;;;;24.20;28.10;;;;;;481433;246;1223;-60
2022/02/04 12:58:25;;;;;;;;;;;24.30;28.00;;;;;;481271;247;1918;-59
2022/02/04 13:00:33;;;;;;;;;;;24.20;28.00;;;;;;480900;247;1855;-59
2022/02/04 13:02:35;;;;;;;;;;;24.20;28.00;;;;;;480649;247;2080;-59
2022/02/04 13:09:48;;;;;;;;;;;24.20;28.10;;;;;;481593;247;1036;-59
2022/02/04 13:11:15;;;;;;;;;;;24.20;28.10;;;;;;480172;247;2138;-59
2022/02/04 13:13:14;;;;;;;;;;;24.20;28.00;;;;;;481312;247;1391;-59
2022/02/04 13:15:16;;;;;;;;;;;24.30;28.00;;;;;;481430;247;1057;-59
2022/02/04 13:17:17;;;;;;;;;;;24.20;28.10;;;;;;481490;246;1278;-59
2022/02/04 13:19:18;;;;;;;;;;;24.10;28.20;;;;;;481597;246;1057;-60
2022/02/04 13:21:20;;;;;;;;;;;24.10;28.20;;;;;;481584;246;1265;-60
2022/02/04 13:23:21;;;;;;;;;;;24.10;28.20;;;;;;481539;246;1185;-59
2022/02/04 13:25:22;;;;;;;;;;;24.20;28.10;;;;;;481386;246;1190;-59
2022/02/04 13:27:24;;;;;;;;;;;24.20;28.10;;;;;;481489;246;1261;-59
2022/02/04 13:29:25;;;;;;;;;;;24.10;28.10;;;;;;481507;246;1050;-60
2022/02/04 13:31:26;;;;;;;;;;;24.10;28.20;;;;;;481494;246;2173;-60
2022/02/04 13:33:28;;;;;;;;;;;24.10;28.20;;;;;;481530;246;1199;-60
2022/02/04 13:35:31;;;;;;;;;;;24.20;28.10;;;;;;481551;246;1054;-60
2022/02/04 13:37:36;;;;;;;;;;;24.20;28.10;;;;;;481561;246;2470;-59
2022/02/04 13:39:45;;;;;;;;;;;24.20;28.20;;;;;;481359;247;1763;-59
2022/02/04 13:41:41;;;;;;;;;;;24.20;28.10;;;;;;480656;247;2204;-59
2022/02/04 13:43:45;;;;;;;;;;;24.10;28.30;;;;;;481186;247;1793;-59
2022/02/04 13:45:45;;;;;;;;;;;23.80;28.60;;;;;;481198;247;2187;-59
2022/02/04 13:47:48;;;;;;;;;;;23.60;28.80;;;;;;481049;247;1363;-60
2022/02/04 13:49:57;;;;;;;;;;;23.30;29.10;;;;;;481018;247;1896;-60
2022/02/04 13:51:56;;;;;;;;;;;23.10;29.20;;;;;;480913;247;2381;-59
2022/02/04 13:54:02;;;;;;;;;;;23.00;29.40;;;;;;481318;247;2031;-59
2022/02/04 13:56:08;;;;;;;;;;;22.70;29.70;;;;;;480935;247;2009;-60
2022/02/04 13:58:06;;;;;;;;;;;22.60;29.80;;;;;;480670;247;2211;-60
2022/02/04 14:00:03;;;;;;;;;;;22.50;29.80;;;;;;480914;247;2088;-59
2022/02/04 14:02:04;;;;;;;;;;;22.40;30.00;;;;;;481056;247;2042;-59
2022/02/04 14:04:01;;;;;;;;;;;22.40;30.00;;;;;;481130;247;2006;-59
2022/02/04 14:06:03;;;;;;;;;;;22.30;30.00;;;;;;481497;247;2122;-59
2022/02/04 14:08:02;;;;;;;;;;;22.20;30.00;;;;;;481678;247;1661;-59
2022/02/04 14:10:08;;;;;;;;;;;22.10;30.20;;;;;;481726;246;1076;-59
2022/02/04 14:12:06;;;;;;;;;;;22.20;30.10;;;;;;481280;247;2311;-58
2022/02/04 14:14:07;;;;;;;;;;;22.10;30.20;;;;;;481487;246;1108;-59
2022/02/04 14:16:10;;;;;;;;;;;22.10;30.20;;;;;;481403;246;1291;-59
2022/02/04 14:18:11;;;;;;;;;;;22.10;30.20;;;;;;481507;246;2495;-59
2022/02/04 14:20:11;;;;;;;;;;;22.00;30.30;;;;;;481514;246;1413;-59
2022/02/04 14:22:13;;;;;;;;;;;22.10;30.40;;;;;;481566;246;1249;-59
2022/02/04 14:24:14;;;;;;;;;;;22.10;30.20;;;;;;481670;246;1005;-59
2022/02/04 14:26:20;;;;;;;;;;;22.00;30.40;;;;;;481659;246;1173;-58
2022/02/04 14:28:24;;;;;;;;;;;22.00;30.60;;;;;;481602;247;2174;-59
2022/02/04 14:30:24;;;;;;;;;;;22.00;30.40;;;;;;481373;247;2230;-59
2022/02/04 14:32:24;;;;;;;;;;;22.10;30.20;;;;;;481340;247;2324;-59
2022/02/04 14:36:58;;;;;;;;;;;22.00;30.50;;;;;;481691;246;1190;-58
2022/02/04 14:50:56;;;;;;;;;;;21.80;30.60;;;;;;481615;247;995;-59
2022/02/04 14:52:53;;;;;;;;;;;21.80;30.80;;;;;;480283;247;2359;-59
2022/02/04 14:58:36;;;;;;;;;;;21.80;30.80;;;;;;480886;247;1574;-59
2022/02/04 15:01:33;;;;;;;;;;;21.90;30.60;;;;;;481401;243;1188;-59
2022/02/04 15:03:33;;;;;;;;;;;21.80;30.80;;;;;;481650;247;2280;-59
2022/02/04 15:05:39;;;;;;;;;;;21.90;30.70;;;;;;481654;247;2310;-59
2022/02/04 15:07:37;;;;;;;;;;;21.80;30.60;;;;;;481337;247;1873;-59
2022/02/04 15:09:38;;;;;;;;;;;21.90;30.50;;;;;;481494;247;1351;-59
2022/02/04 15:11:37;;;;;;;;;;;21.90;30.50;;;;;;481626;247;2193;-59
2022/02/04 15:13:39;;;;;;;;;;;21.90;30.50;;;;;;481720;246;1125;-59
2022/02/04 15:15:39;;;;;;;;;;;21.90;30.60;;;;;;481718;246;1951;-59
2022/02/04 15:17:42;;;;;;;;;;;21.80;30.60;;;;;;481787;246;1245;-59
2022/02/04 15:19:42;;;;;;;;;;;21.80;30.60;;;;;;481716;246;2443;-59
2022/02/04 15:21:48;;;;;;;;;;;21.90;30.50;;;;;;481658;246;1193;-59
2022/02/04 15:23:47;;;;;;;;;;;21.90;30.60;;;;;;481416;247;2745;-59
2022/02/04 15:25:52;;;;;;;;;;;21.90;30.60;;;;;;481625;246;1333;-59
2022/02/04 15:27:59;;;;;;;;;;;21.80;30.70;;;;;;481202;247;2344;-59
2022/02/04 15:29:52;;;;;;;;;;;21.80;30.70;;;;;;480995;247;2251;-59
2022/02/04 15:31:54;;;;;;;;;;;21.80;30.70;;;;;;481637;247;2172;-59
2022/02/04 15:33:53;;;;;;;;;;;21.90;30.40;;;;;;481661;247;1440;-59
2022/02/04 15:35:56;;;;;;;;;;;21.90;30.50;;;;;;481784;246;1378;-59
2022/02/04 15:37:55;;;;;;;;;;;21.90;30.50;;;;;;481556;247;2118;-59
2022/02/04 15:39:57;;;;;;;;;;;22.10;30.20;;;;;;481678;246;1051;-59
2022/02/04 15:41:58;;;;;;;;;;;22.30;30.00;;;;;;481685;246;1323;-59
2022/02/04 15:44:06;;;;;;;;;;;22.50;29.80;;;;;;481772;246;1124;-59
2022/02/04 15:46:37;;;;;;;;;;;22.60;29.70;;;;;;481391;247;2174;-59
2022/02/04 15:48:16;;;;;;;;;;;22.80;29.40;;;;;;480484;247;1895;-59
2022/02/04 15:50:26;;;;;;;;;;;23.00;29.30;;;;;;481797;246;2330;-59
2022/02/04 15:52:42;;;;;;;;;;;22.90;29.30;;;;;;481335;247;2188;-59
2022/02/04 15:54:44;;;;;;;;;;;23.00;29.30;;;;;;480683;247;2329;-59
2022/02/04 15:56:54;;;;;;;;;;;23.10;29.30;;;;;;481251;247;2282;-59
2022/02/04 15:59:09;;;;;;;;;;;23.20;29.10;;;;;;481444;247;2090;-59